Time;durP1;ratioP1;P1;durP2;ratioP2;P2;SDS_P1;SDS_P2;PMS_P1;PMS_P2;Temp;Humidity;BMP_temperature;BMP_pressure;BME280_temperature;BME280_humidity;BME280_pressure;Samples;Min_cycle;Max_cycle;Signal;HPM_P1;HPM_P2
2022/06/27 00:00:48;;;;;;;33.60;31.75;;;20.90;99.90;;;;;;5054356;28;20523;-78
2022/06/27 00:03:14;;;;;;;21.15;20.05;;;20.70;99.90;;;;;;5057066;28;20187;-78
2022/06/27 00:05:40;;;;;;;68.20;64.78;;;20.60;99.90;;;;;;5055974;28;20205;-80
2022/06/27 00:08:06;;;;;;;72.57;69.13;;;20.60;99.90;;;;;;5055982;28;20202;-81
2022/06/27 00:10:32;;;;;;;50.88;48.13;;;20.50;99.90;;;;;;5057595;28;20198;-80
2022/06/27 00:12:58;;;;;;;24.83;23.23;;;20.40;99.90;;;;;;5060356;28;20202;-80
2022/06/27 00:15:24;;;;;;;8.20;7.70;;;20.30;99.90;;;;;;5067575;28;20213;-80
2022/06/27 00:17:51;;;;;;;9.23;8.60;;;20.30;99.90;;;;;;5066987;28;20255;-78
2022/06/27 00:20:16;;;;;;;6.90;6.50;;;20.40;99.90;;;;;;5066236;28;20187;-78
2022/06/27 00:22:42;;;;;;;5.85;5.50;;;20.30;99.90;;;;;;5061264;28;20265;-78
2022/06/27 00:25:09;;;;;;;6.88;6.57;;;20.30;99.90;;;;;;5058663;28;20202;-78
2022/06/27 00:27:35;;;;;;;8.20;7.80;;;20.40;99.90;;;;;;5056402;28;20174;-78
2022/06/27 00:30:01;;;;;;;5.47;5.23;;;20.40;99.90;;;;;;5055693;28;20743;-80
2022/06/27 00:32:29;;;;;;;5.80;5.60;;;20.40;99.90;;;;;;5056335;28;20185;-80
2022/06/27 00:34:55;;;;;;;12.80;12.20;;;20.40;99.90;;;;;;5055552;28;20190;-81
2022/06/27 00:37:20;;;;;;;330.42;312.45;;;20.30;99.90;;;;;;5059307;28;20177;-81
2022/06/27 00:39:46;;;;;;;131.75;124.85;;;20.10;99.90;;;;;;5058944;28;20713;-79
2022/06/27 00:42:12;;;;;;;47.45;44.83;;;19.90;99.90;;;;;;5054790;28;20210;-79
2022/06/27 00:44:41;;;;;;;61.07;57.87;;;19.60;99.90;;;;;;5057530;28;20187;-79
2022/06/27 00:47:10;;;;;;;76.03;72.30;;;19.30;99.90;;;;;;5069068;28;20193;-79
2022/06/27 00:49:37;;;;;;;145.33;137.50;;;19.00;99.90;;;;;;5060877;28;20297;-78
2022/06/27 00:52:04;;;;;;;233.60;219.60;;;18.80;99.90;;;;;;5067203;28;20178;-79
2022/06/27 00:54:30;;;;;;;123.03;116.90;;;18.60;99.90;;;;;;5053069;28;20202;-79
2022/06/27 00:56:57;;;;;;;90.50;85.33;;;18.60;99.90;;;;;;5050822;28;20259;-78
2022/06/27 00:59:23;;;;;;;93.17;88.00;;;18.60;99.90;;;;;;5050204;28;20217;-78
2022/06/27 01:01:49;;;;;;;72.17;68.17;;;18.60;99.90;;;;;;5051679;28;20240;-77
2022/06/27 01:04:15;;;;;;;149.20;141.00;;;18.50;99.90;;;;;;5051713;28;20252;-77
2022/06/27 01:06:42;;;;;;;153.03;144.10;;;18.40;99.90;;;;;;5051556;28;20182;-77
2022/06/27 01:09:08;;;;;;;36.83;34.90;;;18.20;99.90;;;;;;5050992;28;20819;-77
2022/06/27 01:11:34;;;;;;;123.70;116.27;;;18.20;99.90;;;;;;5051498;28;20198;-77
2022/06/27 01:14:00;;;;;;;95.20;90.10;;;18.20;99.90;;;;;;5051378;28;20224;-77
2022/06/27 01:16:26;;;;;;;90.13;85.33;;;18.10;99.90;;;;;;5051497;28;20190;-77
2022/06/27 01:18:52;;;;;;;144.23;136.17;;;18.10;99.90;;;;;;5050729;28;20199;-77
2022/06/27 01:21:24;;;;;;;110.00;104.10;;;18.00;99.90;;;;;;5050143;28;20261;-77
2022/06/27 01:23:51;;;;;;;190.93;180.60;;;17.90;99.90;;;;;;5050024;28;20366;-77
2022/06/27 01:26:22;;;;;;;213.97;202.80;;;17.90;99.90;;;;;;5051355;28;20175;-78
2022/06/27 01:28:48;;;;;;;230.43;217.70;;;17.80;99.90;;;;;;5050253;28;20202;-79
2022/06/27 01:31:15;;;;;;;175.03;166.03;;;17.60;99.90;;;;;;5053414;28;20265;-79
2022/06/27 01:33:42;;;;;;;6.00;5.70;;;17.50;99.90;;;;;;5056275;28;20206;-78
2022/06/27 01:38:54;;;;;;;158.03;150.03;;;17.10;99.90;;;;;;5054717;28;20194;-79
2022/06/27 01:41:20;;;;;;;186.13;175.07;;;17.00;99.90;;;;;;5055341;28;20206;-79
2022/06/27 01:43:48;;;;;;;146.93;138.73;;;17.00;99.90;;;;;;5058240;28;20190;-79
2022/06/27 01:46:14;;;;;;;156.17;147.23;;;17.20;99.90;;;;;;5062682;28;20212;-79
2022/06/27 01:48:40;;;;;;;168.90;159.10;;;17.20;99.90;;;;;;5064731;28;20468;-80
2022/06/27 01:51:08;;;;;;;34.60;32.57;;;17.30;99.90;;;;;;5062893;28;20186;-80
2022/06/27 01:53:35;;;;;;;54.63;51.93;;;17.20;99.90;;;;;;5058409;28;20217;-80
2022/06/27 01:56:02;;;;;;;137.00;128.13;;;17.30;99.90;;;;;;5056744;28;20178;-80
2022/06/27 01:58:27;;;;;;;113.70;106.87;;;17.40;99.90;;;;;;5059380;28;20258;-79
2022/06/27 02:00:54;;;;;;;136.00;127.53;;;17.40;99.90;;;;;;5072213;28;20185;-79
2022/06/27 02:03:19;;;;;;;143.33;134.20;;;17.40;99.90;;;;;;5060451;28;20557;-80
2022/06/27 02:05:46;;;;;;;157.97;148.67;;;17.40;99.90;;;;;;5053822;28;20182;-80
2022/06/27 02:08:13;;;;;;;124.00;116.30;;;17.40;99.90;;;;;;5056078;28;20440;-81
2022/06/27 02:10:39;;;;;;;153.87;145.33;;;17.40;99.90;;;;;;5058515;28;20713;-80
2022/06/27 02:13:05;;;;;;;152.63;143.87;;;17.50;99.90;;;;;;5058051;28;20586;-81
2022/06/27 02:15:31;;;;;;;91.20;85.73;;;17.50;99.90;;;;;;5058698;28;20178;-80
2022/06/27 02:17:57;;;;;;;131.93;124.57;;;17.50;99.90;;;;;;5056419;28;20178;-80
2022/06/27 02:20:24;;;;;;;152.80;144.37;;;17.50;99.90;;;;;;5057998;28;20268;-81
2022/06/27 02:22:50;;;;;;;101.97;96.37;;;17.50;99.90;;;;;;5059339;28;20647;-80
2022/06/27 02:25:16;;;;;;;160.77;152.27;;;17.50;99.90;;;;;;5071300;28;20178;-80
2022/06/27 02:27:43;;;;;;;122.60;116.10;;;17.60;99.90;;;;;;5063688;28;20197;-78
2022/06/27 02:30:10;;;;;;;57.40;53.90;;;17.60;99.90;;;;;;5056397;28;20716;-79
2022/06/27 02:32:35;;;;;;;59.63;56.63;;;17.60;99.90;;;;;;5056181;28;20198;-78
2022/06/27 02:35:01;;;;;;;144.93;136.93;;;17.50;99.90;;;;;;5057781;28;20198;-78
2022/06/27 02:37:29;;;;;;;85.93;81.63;;;17.40;99.90;;;;;;5056128;28;20182;-78
2022/06/27 02:39:56;;;;;;;48.00;45.53;;;17.50;99.90;;;;;;5058244;28;20229;-79
2022/06/27 02:42:23;;;;;;;49.90;47.40;;;17.50;99.90;;;;;;5058574;28;20193;-79
2022/06/27 02:44:49;;;;;;;47.50;45.00;;;17.50;99.90;;;;;;5057589;28;20185;-78
2022/06/27 02:47:20;;;;;;;56.17;53.27;;;17.50;99.90;;;;;;5056074;28;20190;-78
2022/06/27 02:49:46;;;;;;;51.73;49.03;;;17.40;99.90;;;;;;5057014;28;20217;-79
2022/06/27 02:52:30;;;;;;;57.47;54.50;;;17.40;99.90;;;;;;5056367;28;20186;-79
2022/06/27 02:55:09;;;;;;;56.13;53.03;;;17.50;99.90;;;;;;5055545;28;20569;-77
2022/06/27 02:57:45;;;;;;;58.07;55.10;;;17.50;99.90;;;;;;5055684;28;20182;-78
2022/06/27 03:00:12;;;;;;;111.53;105.77;;;17.50;99.90;;;;;;5055891;28;20693;-78
2022/06/27 03:02:41;;;;;;;126.07;119.37;;;17.40;99.90;;;;;;5057331;28;20178;-79
2022/06/27 03:05:07;;;;;;;103.70;98.10;;;17.40;99.90;;;;;;5059577;28;20190;-78
2022/06/27 03:07:41;;;;;;;114.67;108.70;;;17.30;99.90;;;;;;5064332;28;20185;-78
2022/06/27 03:10:09;;;;;;;95.67;90.70;;;17.20;99.90;;;;;;5066908;28;20309;-79
2022/06/27 03:12:34;;;;;;;41.37;39.27;;;17.20;99.90;;;;;;5069902;28;20182;-78
2022/06/27 03:15:00;;;;;;;46.13;43.73;;;17.30;99.90;;;;;;5060092;28;20221;-79
2022/06/27 03:17:26;;;;;;;51.43;48.70;;;17.30;99.90;;;;;;5056214;28;20229;-79
2022/06/27 03:19:52;;;;;;;57.23;54.40;;;17.30;99.90;;;;;;5067421;28;20200;-78
2022/06/27 03:22:18;;;;;;;80.17;75.93;;;17.30;99.90;;;;;;5060511;28;20190;-79
2022/06/27 03:24:44;;;;;;;138.70;131.47;;;17.20;99.90;;;;;;5056386;28;20186;-80
2022/06/27 03:27:10;;;;;;;81.43;76.80;;;17.20;99.90;;;;;;5053308;28;20193;-78
2022/06/27 03:29:39;;;;;;;54.40;51.50;;;17.20;99.90;;;;;;5052556;28;20241;-77
2022/06/27 03:32:05;;;;;;;93.20;87.77;;;17.40;99.90;;;;;;5053551;28;20277;-78
2022/06/27 03:34:32;;;;;;;54.87;51.37;;;17.40;99.90;;;;;;5055268;28;20325;-79
2022/06/27 03:36:58;;;;;;;62.67;59.17;;;17.40;99.90;;;;;;5056017;28;20503;-79
2022/06/27 03:39:24;;;;;;;75.10;70.93;;;17.40;99.90;;;;;;5056485;28;20208;-79
2022/06/27 03:41:51;;;;;;;149.07;140.97;;;17.40;99.90;;;;;;5057267;28;20174;-79
2022/06/27 03:44:17;;;;;;;141.73;133.73;;;17.50;99.90;;;;;;5056976;28;20182;-79
2022/06/27 03:46:43;;;;;;;117.93;111.27;;;17.40;99.90;;;;;;5056041;28;20559;-80
2022/06/27 03:51:55;;;;;;;28.00;26.57;;;17.50;99.90;;;;;;5056945;28;20558;-78
2022/06/27 03:54:21;;;;;;;229.90;217.80;;;17.50;99.90;;;;;;5056404;28;20202;-78
2022/06/27 03:56:47;;;;;;;121.43;115.03;;;17.50;99.90;;;;;;5054908;28;20189;-80
2022/06/27 03:59:13;;;;;;;81.70;77.47;;;17.40;99.90;;;;;;5056396;28;20218;-78
2022/06/27 04:01:39;;;;;;;54.33;51.50;;;17.50;99.90;;;;;;5062871;28;20185;-79
2022/06/27 04:04:05;;;;;;;66.10;62.60;;;17.40;99.90;;;;;;5075016;28;20182;-79
2022/06/27 04:06:32;;;;;;;63.43;60.03;;;17.50;99.90;;;;;;5065078;28;20182;-78
2022/06/27 04:08:58;;;;;;;55.50;52.53;;;17.60;99.90;;;;;;5051716;28;20225;-79
2022/06/27 04:11:24;;;;;;;94.77;89.83;;;17.60;99.90;;;;;;5053930;28;20189;-78
2022/06/27 04:13:50;;;;;;;116.77;110.63;;;17.50;99.90;;;;;;5055256;28;20202;-78
2022/06/27 04:16:15;;;;;;;114.80;108.67;;;17.50;99.90;;;;;;5054972;28;20678;-79
2022/06/27 04:18:41;;;;;;;67.43;63.87;;;17.50;99.90;;;;;;5055110;28;20256;-79
2022/06/27 04:21:07;;;;;;;59.00;55.50;;;17.60;99.90;;;;;;5054369;28;20182;-79
2022/06/27 04:23:33;;;;;;;199.07;188.33;;;17.60;99.90;;;;;;5056354;28;20186;-79
2022/06/27 04:25:59;;;;;;;42.27;40.10;;;17.60;99.90;;;;;;5054222;28;20193;-78
2022/06/27 04:28:25;;;;;;;89.90;85.10;;;17.50;99.90;;;;;;5054884;28;20289;-79
2022/06/27 04:30:52;;;;;;;75.00;71.10;;;17.70;99.90;;;;;;5053441;28;20201;-78
2022/06/27 04:33:18;;;;;;;91.23;86.30;;;17.70;99.90;;;;;;5053856;28;20292;-79
2022/06/27 04:35:46;;;;;;;91.80;86.80;;;17.70;99.90;;;;;;5054985;28;20290;-78
2022/06/27 04:38:17;;;;;;;104.80;98.97;;;17.90;99.90;;;;;;5054369;28;20226;-79
2022/06/27 04:40:43;;;;;;;14.50;13.70;;;18.00;99.90;;;;;;5054998;28;20291;-78
2022/06/27 04:43:10;;;;;;;46.70;44.40;;;18.00;99.90;;;;;;5054078;28;20202;-77
2022/06/27 04:45:36;;;;;;;78.10;73.77;;;18.10;99.90;;;;;;5057200;28;20593;-78
2022/06/27 04:48:04;;;;;;;52.83;49.93;;;18.00;99.90;;;;;;5068935;28;20185;-78
2022/06/27 04:50:32;;;;;;;128.80;122.30;;;18.10;99.90;;;;;;5060842;28;20505;-79
2022/06/27 04:53:00;;;;;;;12.67;12.13;;;18.20;99.90;;;;;;5057482;28;20198;-78
2022/06/27 04:55:26;;;;;;;35.00;33.30;;;18.30;99.90;;;;;;5055494;28;20674;-78
2022/06/27 04:57:53;;;;;;;22.57;21.23;;;18.50;99.90;;;;;;5059150;28;20174;-78
2022/06/27 05:00:19;;;;;;;7.97;7.47;;;18.50;99.90;;;;;;5038074;23;20288;-75
2022/06/27 05:02:46;;;;;;;5.10;4.80;;;18.60;99.90;;;;;;5012070;28;20660;-75
2022/06/27 05:05:12;;;;;;;18.87;17.97;;;18.70;99.90;;;;;;5012167;28;20306;-76
2022/06/27 05:07:38;;;;;;;53.43;50.83;;;18.80;99.90;;;;;;5011153;28;20262;-76
2022/06/27 05:10:05;;;;;;;68.57;65.23;;;19.10;99.90;;;;;;5026312;28;20198;-75
2022/06/27 05:12:31;;;;;;;62.13;59.20;;;19.50;99.90;;;;;;5030419;28;20237;-75
2022/06/27 05:14:57;;;;;;;84.13;80.13;;;19.70;99.90;;;;;;5031777;28;20218;-75
2022/06/27 05:17:24;;;;;;;35.90;34.13;;;20.00;99.90;;;;;;5037852;28;20350;-75
2022/06/27 05:19:50;;;;;;;154.27;146.73;;;20.20;99.90;;;;;;5032632;28;20701;-75
2022/06/27 05:22:16;;;;;;;236.13;224.48;;;20.00;99.90;;;;;;5046530;28;20265;-75
2022/06/27 05:24:42;;;;;;;146.95;139.27;;;20.00;99.90;;;;;;5048765;28;20197;-75
2022/06/27 05:27:09;;;;;;;28.90;27.40;;;20.30;99.90;;;;;;5032156;28;20229;-74
2022/06/27 05:29:36;;;;;;;30.07;28.53;;;20.50;99.90;;;;;;5037304;28;20252;-75
2022/06/27 05:32:03;;;;;;;20.85;19.83;;;20.90;99.90;;;;;;5031650;28;20552;-76
2022/06/27 05:34:29;;;;;;;48.90;46.38;;;21.40;99.90;;;;;;5031351;28;20578;-76
2022/06/27 05:36:55;;;;;;;65.40;62.15;;;21.90;99.90;;;;;;5029385;28;20205;-76
2022/06/27 05:39:21;;;;;;;74.25;70.65;;;22.60;99.90;;;;;;5029808;28;20226;-76
2022/06/27 05:41:47;;;;;;;137.55;130.93;;;23.10;99.90;;;;;;5031208;28;20289;-76
2022/06/27 05:44:15;;;;;;;51.15;48.50;;;23.70;99.90;;;;;;5030174;28;20186;-76
2022/06/27 05:46:41;;;;;;;7.00;6.68;;;24.00;99.90;;;;;;5030854;28;20208;-76
2022/06/27 05:49:09;;;;;;;4.72;4.32;;;24.30;99.90;;;;;;5029406;28;20721;-76
2022/06/27 05:51:36;;;;;;;6.35;6.03;;;24.30;99.90;;;;;;5031150;28;20206;-77
2022/06/27 05:54:02;;;;;;;7.13;6.53;;;24.00;99.90;;;;;;5029658;28;20203;-76
2022/06/27 05:56:29;;;;;;;6.85;6.55;;;23.70;99.90;;;;;;5031033;28;20175;-76
2022/06/27 05:58:55;;;;;;;3.80;3.60;;;23.20;99.90;;;;;;5030035;28;20590;-76
2022/06/27 06:01:25;;;;;;;31.35;29.65;;;22.90;99.90;;;;;;5031121;28;20174;-76
2022/06/27 06:03:53;;;;;;;13.18;12.60;;;22.70;99.90;;;;;;5031276;28;20640;-77
2022/06/27 06:06:18;;;;;;;10.35;9.68;;;22.60;99.90;;;;;;5031527;28;20170;-76
2022/06/27 06:08:45;;;;;;;8.55;8.07;;;22.40;99.90;;;;;;5029200;28;20203;-77
2022/06/27 06:11:13;;;;;;;181.15;172.32;;;22.10;99.90;;;;;;5029618;28;20620;-76
2022/06/27 06:13:40;;;;;;;147.77;140.63;;;22.10;99.90;;;;;;5029476;28;20629;-76
2022/06/27 06:16:10;;;;;;;121.32;115.22;;;22.00;99.90;;;;;;5030901;28;20698;-76
2022/06/27 06:18:37;;;;;;;133.38;127.03;;;22.10;99.90;;;;;;5028893;28;20261;-77
2022/06/27 06:21:04;;;;;;;182.48;173.98;;;22.10;99.90;;;;;;5029613;28;20184;-77
2022/06/27 06:23:32;;;;;;;137.13;130.57;;;22.00;99.90;;;;;;5030025;28;20240;-78
2022/06/27 06:25:58;;;;;;;111.60;106.30;;;21.90;99.90;;;;;;5030820;28;20183;-77
2022/06/27 06:28:25;;;;;;;144.75;137.48;;;22.10;99.90;;;;;;5030191;28;20187;-78
2022/06/27 06:30:51;;;;;;;169.02;160.85;;;22.00;99.90;;;;;;5030811;28;20179;-77
2022/06/27 06:33:17;;;;;;;146.50;139.57;;;21.70;99.90;;;;;;5029568;28;20230;-77
2022/06/27 06:35:43;;;;;;;106.70;101.68;;;21.70;99.90;;;;;;5029763;28;20666;-77
2022/06/27 06:38:09;;;;;;;53.15;50.65;;;21.70;99.90;;;;;;5030790;28;20176;-77
2022/06/27 06:40:35;;;;;;;28.92;27.58;;;21.70;99.90;;;;;;5033413;28;20190;-76
2022/06/27 06:43:01;;;;;;;33.50;31.95;;;21.80;99.90;;;;;;5029818;28;20183;-77
2022/06/27 06:45:29;;;;;;;109.57;104.32;;;21.90;99.90;;;;;;5031236;28;20175;-76
2022/06/27 06:47:55;;;;;;;84.20;80.07;;;22.00;99.90;;;;;;5029790;28;20229;-77
2022/06/27 06:50:20;;;;;;;147.07;139.65;;;22.60;99.90;;;;;;5029476;28;20211;-78
2022/06/27 06:52:51;;;;;;;107.05;101.55;;;22.90;99.90;;;;;;5030524;28;20718;-77
2022/06/27 06:55:20;;;;;;;49.35;46.95;;;23.20;99.90;;;;;;5033662;28;20183;-77
2022/06/27 06:57:46;;;;;;;17.50;16.73;;;23.50;99.90;;;;;;5033265;28;20647;-77
2022/06/27 07:00:12;;;;;;;9.63;9.00;;;23.90;99.90;;;;;;5034132;28;20244;-77
2022/06/27 07:02:38;;;;;;;5.20;4.90;;;23.80;99.90;;;;;;5033037;28;20229;-77
2022/06/27 07:05:08;;;;;;;9.38;8.88;;;24.10;99.90;;;;;;5033997;28;20183;-77
2022/06/27 07:07:34;;;;;;;16.13;15.25;;;24.40;99.90;;;;;;5033190;28;20190;-77
2022/06/27 07:10:01;;;;;;;5.63;5.32;;;24.40;99.90;;;;;;5034319;28;20301;-77
2022/06/27 07:12:29;;;;;;;11.20;10.57;;;24.30;99.90;;;;;;5034097;28;20647;-77
2022/06/27 07:14:56;;;;;;;8.80;8.30;;;24.00;99.90;;;;;;5033488;28;20704;-77
2022/06/27 07:17:24;;;;;;;5.60;5.30;;;24.00;99.90;;;;;;5032252;28;20194;-78
2022/06/27 07:19:54;;;;;;;6.18;5.78;;;23.90;99.90;;;;;;5032630;28;20279;-77
2022/06/27 07:22:23;;;;;;;13.20;12.63;;;23.70;99.90;;;;;;5032471;28;20533;-77
2022/06/27 07:24:50;;;;;;;7.82;7.32;;;23.50;99.90;;;;;;5033684;28;20190;-77
2022/06/27 07:27:17;;;;;;;3.95;3.75;;;23.20;99.90;;;;;;5032814;28;20206;-77
2022/06/27 07:29:43;;;;;;;4.18;3.88;;;22.90;99.90;;;;;;5033378;28;20203;-77
2022/06/27 07:32:10;;;;;;;3.08;2.83;;;23.00;99.90;;;;;;5033681;28;20187;-77
2022/06/27 07:34:36;;;;;;;14.25;13.65;;;22.80;99.90;;;;;;5033359;28;20214;-77
2022/06/27 07:37:03;;;;;;;3.50;3.30;;;23.40;99.90;;;;;;5032649;28;20191;-78
2022/06/27 07:39:29;;;;;;;7.05;6.75;;;23.70;99.90;;;;;;5031824;28;20230;-77
2022/06/27 07:41:55;;;;;;;12.30;11.57;;;23.80;99.90;;;;;;5032081;28;20252;-77
2022/06/27 07:44:25;;;;;;;9.48;9.05;;;23.90;99.90;;;;;;5033276;28;20182;-77
2022/06/27 07:46:51;;;;;;;5.88;5.57;;;24.40;99.90;;;;;;5032479;28;20183;-78
2022/06/27 07:49:17;;;;;;;15.68;15.02;;;24.50;99.90;;;;;;5033736;28;20199;-77
2022/06/27 07:51:43;;;;;;;5.97;5.72;;;23.90;99.90;;;;;;5032959;28;20210;-77
2022/06/27 07:54:10;;;;;;;4.85;4.75;;;23.60;99.90;;;;;;5031721;28;20564;-77
2022/06/27 07:56:39;;;;;;;5.25;4.95;;;23.40;99.90;;;;;;5033091;28;20256;-78
2022/06/27 07:59:10;;;;;;;7.57;7.20;;;23.10;99.90;;;;;;5030971;28;20214;-77
2022/06/27 08:01:36;;;;;;;3.55;3.28;;;23.00;99.90;;;;;;5033092;28;20550;-77
2022/06/27 08:04:04;;;;;;;3.38;3.28;;;22.90;99.90;;;;;;5031665;28;20194;-77
2022/06/27 08:06:29;;;;;;;3.35;3.25;;;22.70;99.90;;;;;;5039745;28;20233;-76
2022/06/27 08:09:03;;;;;;;4.07;3.83;;;22.60;99.90;;;;;;5049815;28;20191;-78
2022/06/27 08:11:31;;;;;;;3.30;3.20;;;22.70;99.90;;;;;;5036207;28;20195;-77
2022/06/27 08:14:03;;;;;;;6.22;6.03;;;22.90;99.90;;;;;;5043958;28;20206;-76
2022/06/27 08:16:30;;;;;;;4.97;4.85;;;23.30;99.90;;;;;;5036412;28;20240;-77
2022/06/27 08:18:56;;;;;;;10.02;9.63;;;23.60;99.90;;;;;;5030535;28;20199;-78
2022/06/27 08:21:25;;;;;;;6.47;6.18;;;23.70;99.90;;;;;;5031346;28;20186;-77
2022/06/27 08:23:53;;;;;;;4.85;4.65;;;23.60;99.90;;;;;;5031659;28;20189;-77
2022/06/27 08:26:21;;;;;;;5.97;5.68;;;23.30;99.90;;;;;;5032038;28;20206;-77
2022/06/27 08:28:47;;;;;;;9.23;8.73;;;23.20;99.90;;;;;;5031114;28;20203;-77
2022/06/27 08:31:14;;;;;;;8.00;7.50;;;23.20;99.90;;;;;;5031167;28;20191;-78
2022/06/27 08:33:43;;;;;;;7.65;7.28;;;23.20;99.90;;;;;;5032120;28;20234;-78
2022/06/27 08:36:09;;;;;;;7.18;6.85;;;23.20;99.90;;;;;;5031059;28;20182;-77
2022/06/27 08:38:40;;;;;;;8.15;7.72;;;23.20;99.90;;;;;;5031167;28;20278;-78
2022/06/27 08:41:07;;;;;;;7.25;6.95;;;23.10;99.90;;;;;;5032144;28;20179;-77
2022/06/27 08:43:34;;;;;;;10.55;10.02;;;23.10;99.90;;;;;;5032298;28;20194;-77
2022/06/27 08:46:00;;;;;;;6.57;6.38;;;23.10;99.90;;;;;;5032215;28;20273;-77
2022/06/27 08:48:28;;;;;;;8.13;7.72;;;23.30;99.90;;;;;;5031522;28;20269;-77
2022/06/27 08:50:56;;;;;;;4.30;4.10;;;23.50;99.90;;;;;;5032194;28;20186;-78
2022/06/27 08:53:25;;;;;;;4.78;4.63;;;23.40;99.90;;;;;;5032149;28;20564;-77
2022/06/27 08:55:51;;;;;;;4.90;4.60;;;23.30;99.90;;;;;;5030846;28;20636;-77
2022/06/27 08:58:17;;;;;;;8.35;7.85;;;23.00;99.90;;;;;;5029602;28;20253;-78
2022/06/27 09:00:47;;;;;;;7.63;7.32;;;23.00;99.90;;;;;;5030358;28;20191;-78
2022/06/27 09:03:18;;;;;;;8.25;7.85;;;23.10;99.90;;;;;;5030448;28;20211;-77
2022/06/27 09:06:00;;;;;;;6.80;6.50;;;23.10;99.90;;;;;;5030698;28;20195;-77
2022/06/27 09:08:31;;;;;;;6.90;6.25;;;23.20;99.90;;;;;;5029817;28;20213;-77
2022/06/27 09:10:58;;;;;;;5.18;4.97;;;23.70;99.90;;;;;;5030591;28;20187;-77
2022/06/27 09:13:26;;;;;;;9.07;8.52;;;24.20;99.90;;;;;;5030920;28;20667;-78
2022/06/27 09:16:01;;;;;;;48.80;46.28;;;24.60;99.90;;;;;;5030955;28;20262;-78
2022/06/27 09:18:37;;;;;;;74.28;70.63;;;24.30;99.90;;;;;;5032062;28;20210;-77
2022/06/27 09:21:05;;;;;;;28.42;26.98;;;24.10;99.90;;;;;;5031687;28;20183;-77
2022/06/27 09:23:50;;;;;;;4.60;4.40;;;23.70;99.90;;;;;;5030352;28;20651;-78
2022/06/27 09:26:17;;;;;;;6.60;6.20;;;23.60;99.90;;;;;;5030651;28;20229;-78
2022/06/27 09:28:56;;;;;;;24.25;23.05;;;24.10;99.90;;;;;;5030383;28;20244;-77
2022/06/27 09:31:33;;;;;;;41.08;39.15;;;24.40;99.90;;;;;;5031567;28;20190;-77
2022/06/27 09:34:09;;;;;;;97.53;92.95;;;24.40;99.90;;;;;;5031152;28;20649;-77
2022/06/27 09:36:42;;;;;;;81.50;77.75;;;24.70;99.90;;;;;;5030217;28;20198;-77
2022/06/27 09:39:20;;;;;;;15.73;15.00;;;25.20;99.90;;;;;;5029629;28;20301;-77
2022/06/27 09:42:01;;;;;;;15.10;14.30;;;25.90;99.90;;;;;;5031166;28;20187;-77
2022/06/27 09:44:29;;;;;;;36.40;34.58;;;26.10;99.90;;;;;;5031736;28;20195;-78
2022/06/27 09:47:08;;;;;;;64.15;61.10;;;26.20;99.90;;;;;;5030498;28;20182;-78
2022/06/27 09:49:37;;;;;;;82.45;78.53;;;26.30;99.90;;;;;;5029704;28;20238;-77
2022/06/27 09:52:10;;;;;;;93.50;88.97;;;26.00;99.90;;;;;;5031220;28;20183;-77
2022/06/27 09:54:37;;;;;;;38.35;36.53;;;25.60;99.90;;;;;;5029674;28;20291;-77
2022/06/27 09:57:05;;;;;;;40.33;38.42;;;25.50;99.90;;;;;;5030181;28;20643;-78
2022/06/27 09:59:32;;;;;;;43.25;40.97;;;25.40;99.90;;;;;;5030719;28;20237;-77
2022/06/27 10:01:58;;;;;;;44.05;41.88;;;25.40;99.90;;;;;;5029681;28;20233;-78
2022/06/27 10:04:25;;;;;;;35.80;33.95;;;25.40;99.90;;;;;;5029601;28;20183;-77
2022/06/27 10:06:53;;;;;;;19.10;18.10;;;25.20;99.90;;;;;;5030695;28;20189;-78
2022/06/27 10:09:24;;;;;;;4.07;3.88;;;24.70;99.90;;;;;;5030700;28;20243;-77
2022/06/27 10:12:27;;;;;;;28.88;27.55;;;24.40;99.90;;;;;;5030842;28;20241;-77
2022/06/27 10:15:14;;;;;;;33.90;32.22;;;24.30;99.90;;;;;;5029653;28;20206;-78
2022/06/27 10:17:46;;;;;;;127.68;121.43;;;24.20;99.90;;;;;;5029961;28;20674;-78
2022/06/27 10:20:19;;;;;;;36.75;34.90;;;24.70;99.90;;;;;;5030195;28;20797;-77
2022/06/27 10:23:04;;;;;;;21.23;20.27;;;25.90;99.90;;;;;;5031095;28;20186;-77
2022/06/27 10:25:29;;;;;;;65.95;62.83;;;26.60;99.90;;;;;;5030855;28;20178;-77
2022/06/27 10:28:11;;;;;;;42.80;40.80;;;26.20;99.90;;;;;;5028762;28;20705;-76
2022/06/27 10:30:39;;;;;;;30.40;28.95;;;25.40;99.90;;;;;;5033522;28;20726;-77
2022/06/27 10:33:26;;;;;;;18.30;17.40;;;25.00;99.90;;;;;;5033603;28;20211;-76
2022/06/27 10:35:59;;;;;;;15.30;14.50;;;24.80;99.90;;;;;;5033545;28;20220;-76
2022/06/27 10:38:33;;;;;;;31.42;29.90;;;25.30;99.90;;;;;;5032278;28;20186;-77
2022/06/27 10:41:03;;;;;;;110.10;104.85;;;26.10;99.90;;;;;;5034553;28;20182;-76
2022/06/27 10:43:45;;;;;;;132.68;126.18;;;26.30;99.90;;;;;;5033179;28;20207;-76
2022/06/27 10:46:11;;;;;;;65.95;62.65;;;25.60;99.90;;;;;;5034622;28;20191;-76
2022/06/27 10:48:50;;;;;;;32.90;31.30;;;25.10;99.90;;;;;;5032566;28;20285;-77
2022/06/27 10:51:27;;;;;;;29.25;27.73;;;24.70;99.90;;;;;;5038810;28;20190;-77
2022/06/27 10:53:59;;;;;;;19.08;18.08;;;24.80;99.90;;;;;;5037092;28;20296;-76
2022/06/27 10:56:43;;;;;;;8.48;8.10;;;24.40;99.90;;;;;;5034930;28;20276;-76
2022/06/27 10:59:15;;;;;;;24.73;23.45;;;23.80;99.90;;;;;;5054493;22;20297;-79
2022/06/27 11:01:50;;;;;;;16.48;15.25;;;23.80;99.90;;;;;;5030348;28;20176;-79
2022/06/27 11:04:30;;;;;;;32.00;29.50;;;24.90;99.90;;;;;;5019849;28;20187;-80
2022/06/27 11:07:04;;;;;;;110.85;105.05;;;26.40;99.90;;;;;;5016991;28;20202;-80
2022/06/27 11:09:56;;;;;;;65.95;62.63;;;27.40;99.90;;;;;;5025841;28;20214;-79
2022/06/27 11:12:28;;;;;;;10.18;9.68;;;28.00;99.90;;;;;;5035266;28;20186;-79
2022/06/27 11:14:59;;;;;;;13.75;13.10;;;28.20;99.90;;;;;;5036919;28;20257;-79
2022/06/27 11:17:37;;;;;;;9.38;8.73;;;28.40;99.90;;;;;;5036773;28;20598;-79
2022/06/27 11:20:20;;;;;;;19.50;18.45;;;27.80;99.90;;;;;;5037975;28;20571;-79
2022/06/27 11:22:51;;;;;;;8.63;8.32;;;26.70;99.90;;;;;;5038709;28;20210;-79
2022/06/27 11:25:19;;;;;;;13.85;13.15;;;26.30;99.90;;;;;;5036074;28;20658;-79
2022/06/27 11:27:47;;;;;;;20.33;19.40;;;26.50;99.90;;;;;;5037071;28;20171;-80
2022/06/27 11:33:11;;;;;;;18.92;17.92;;;26.90;99.90;;;;;;5038408;28;20210;-79
2022/06/27 11:35:38;;;;;;;16.98;15.85;;;27.80;99.90;;;;;;5038320;28;20175;-79
2022/06/27 11:38:05;;;;;;;4.97;4.65;;;28.40;99.90;;;;;;5037620;28;20182;-78
2022/06/27 11:40:31;;;;;;;3.97;3.58;;;28.20;99.90;;;;;;5036599;28;20655;-79
2022/06/27 11:42:57;;;;;;;15.27;14.48;;;27.30;99.90;;;;;;5039619;28;20381;-79
2022/06/27 11:45:23;;;;;;;24.15;23.00;;;26.50;99.90;;;;;;5047135;28;20274;-78
2022/06/27 11:47:49;;;;;;;17.17;16.38;;;26.00;99.90;;;;;;5042310;28;20186;-79
2022/06/27 11:50:19;;;;;;;19.48;18.52;;;25.90;99.90;;;;;;5037061;28;20223;-78
2022/06/27 11:52:51;;;;;;;13.88;12.95;;;26.30;99.90;;;;;;5038265;28;20182;-79
2022/06/27 11:55:24;;;;;;;26.15;24.50;;;26.30;99.90;;;;;;5035876;28;20186;-79
2022/06/27 11:57:54;;;;;;;34.60;32.88;;;25.90;99.90;;;;;;5036900;28;20233;-78
2022/06/27 12:00:31;;;;;;;64.72;61.63;;;25.80;99.90;;;;;;5036012;28;20408;-79
2022/06/27 12:03:07;;;;;;;121.70;115.93;;;25.60;99.90;;;;;;5038282;28;20186;-78
2022/06/27 12:05:34;;;;;;;114.80;109.32;;;25.50;99.90;;;;;;5038394;28;20180;-79
2022/06/27 12:08:09;;;;;;;107.93;102.75;;;25.40;99.90;;;;;;5037983;28;20174;-79
2022/06/27 12:10:35;;;;;;;128.10;121.97;;;25.40;99.90;;;;;;5040263;28;20240;-79
2022/06/27 12:13:04;;;;;;;129.93;123.80;;;25.10;99.90;;;;;;5040937;28;20238;-78
2022/06/27 12:15:32;;;;;;;60.90;57.95;;;24.70;99.90;;;;;;5048223;28;20245;-78
2022/06/27 12:17:59;;;;;;;32.85;31.15;;;24.50;99.90;;;;;;5052617;28;20182;-78
2022/06/27 12:20:27;;;;;;;19.02;18.15;;;24.50;99.90;;;;;;5044745;28;20211;-78
2022/06/27 12:22:53;;;;;;;29.48;27.88;;;24.60;99.90;;;;;;5046097;28;20185;-78
2022/06/27 12:25:20;;;;;;;10.23;9.73;;;24.40;99.90;;;;;;5038730;28;20186;-78
2022/06/27 12:27:46;;;;;;;7.10;6.70;;;24.10;99.90;;;;;;5038641;28;20182;-78
2022/06/27 12:30:13;;;;;;;5.35;4.95;;;23.80;99.90;;;;;;5038920;28;20203;-78
2022/06/27 12:32:39;;;;;;;6.38;5.97;;;23.70;99.90;;;;;;5038114;28;20268;-79
2022/06/27 12:35:06;;;;;;;9.60;9.20;;;23.40;99.90;;;;;;5041364;28;20229;-79
2022/06/27 12:37:35;;;;;;;25.92;24.73;;;23.40;99.90;;;;;;5037761;28;20186;-79
2022/06/27 12:40:02;;;;;;;40.60;38.67;;;23.40;99.90;;;;;;5036117;28;20205;-79
2022/06/27 12:42:28;;;;;;;12.00;11.40;;;23.70;99.90;;;;;;5037046;28;20175;-79